Livonia, Indiana
Current Conditions -  °F | °C
As of 3:53 AM on Thursday 27 Nov 2014 (Local Time) from KBMG Reporting Station
Overcast Overcast  
Wind Chill: 21°   Ceiling: 1500
Heat Index: 28°   Visibility: 10mi
Dew Point: 23°   Wind: 7mph
Humidity: 81%   Direction: 350°N
Pressure: 30.17"   Gusts: NA
Location:  38.6761°N, 86.2279°W
Report Text: KBMG 270853Z AUTO 35006KT 10SM BKN015 OVC022 M02/M05 A3017 RMK AO2 SNE00 SLP222 P0000 60000 T10221050 51023
Loading
Personal Weather Stations






























Interactive Weather Map New forecast layout! Learn more

10-Day Weather Forecast

Advertisements
Track Severe Weather on mobile